sensor_id;sensor_type;location;lat;lon;timestamp;P1;durP1;ratioP1;P2;durP2;ratioP2
57744;SDS011;58941;50.168;4.410;2023-11-21T00:02:24;1.48;;;1.30;;
57744;SDS011;58941;50.168;4.410;2023-11-21T00:04:50;1.20;;;1.10;;
57744;SDS011;58941;50.168;4.410;2023-11-21T00:07:16;1.13;;;1.00;;
57744;SDS011;58941;50.168;4.410;2023-11-21T00:09:42;1.88;;;1.30;;
57744;SDS011;58941;50.168;4.410;2023-11-21T00:12:08;2.05;;;1.40;;
57744;SDS011;58941;50.168;4.410;2023-11-21T00:14:37;1.88;;;1.45;;
57744;SDS011;58941;50.168;4.410;2023-11-21T00:17:03;1.83;;;1.50;;
57744;SDS011;58941;50.168;4.410;2023-11-21T00:19:29;2.40;;;1.48;;
57744;SDS011;58941;50.168;4.410;2023-11-21T00:21:54;2.58;;;1.58;;
57744;SDS011;58941;50.168;4.410;2023-11-21T00:24:20;1.70;;;1.20;;
57744;SDS011;58941;50.168;4.410;2023-11-21T00:26:45;2.00;;;1.33;;
57744;SDS011;58941;50.168;4.410;2023-11-21T00:29:12;1.75;;;1.38;;
57744;SDS011;58941;50.168;4.410;2023-11-21T00:31:37;2.60;;;1.55;;
57744;SDS011;58941;50.168;4.410;2023-11-21T00:34:04;1.55;;;1.45;;
57744;SDS011;58941;50.168;4.410;2023-11-21T00:36:30;3.75;;;1.60;;
57744;SDS011;58941;50.168;4.410;2023-11-21T00:38:57;2.10;;;1.60;;
57744;SDS011;58941;50.168;4.410;2023-11-21T00:41:22;2.30;;;1.42;;
57744;SDS011;58941;50.168;4.410;2023-11-21T00:43:48;3.97;;;1.30;;
57744;SDS011;58941;50.168;4.410;2023-11-21T00:46:13;2.42;;;1.42;;
57744;SDS011;58941;50.168;4.410;2023-11-21T00:48:39;2.55;;;1.65;;
57744;SDS011;58941;50.168;4.410;2023-11-21T00:51:04;2.88;;;1.42;;
57744;SDS011;58941;50.168;4.410;2023-11-21T00:53:31;1.60;;;1.35;;
57744;SDS011;58941;50.168;4.410;2023-11-21T00:55:57;1.73;;;1.40;;
57744;SDS011;58941;50.168;4.410;2023-11-21T00:58:26;2.05;;;1.58;;
57744;SDS011;58941;50.168;4.410;2023-11-21T01:00:51;2.13;;;1.60;;
57744;SDS011;58941;50.168;4.410;2023-11-21T01:03:17;2.05;;;1.50;;
57744;SDS011;58941;50.168;4.410;2023-11-21T01:05:42;1.55;;;1.23;;
57744;SDS011;58941;50.168;4.410;2023-11-21T01:08:08;1.88;;;1.50;;
57744;SDS011;58941;50.168;4.410;2023-11-21T01:10:34;3.53;;;1.60;;
57744;SDS011;58941;50.168;4.410;2023-11-21T01:13:00;3.55;;;2.30;;
57744;SDS011;58941;50.168;4.410;2023-11-21T01:15:25;2.40;;;1.48;;
57744;SDS011;58941;50.168;4.410;2023-11-21T01:17:51;3.15;;;1.58;;
57744;SDS011;58941;50.168;4.410;2023-11-21T01:20:17;1.58;;;1.40;;
57744;SDS011;58941;50.168;4.410;2023-11-21T01:22:42;2.40;;;1.85;;
57744;SDS011;58941;50.168;4.410;2023-11-21T01:25:08;1.90;;;1.50;;
57744;SDS011;58941;50.168;4.410;2023-11-21T01:27:34;2.45;;;1.50;;
57744;SDS011;58941;50.168;4.410;2023-11-21T01:30:00;2.38;;;1.70;;
57744;SDS011;58941;50.168;4.410;2023-11-21T01:32:25;2.17;;;1.60;;
57744;SDS011;58941;50.168;4.410;2023-11-21T01:34:51;2.00;;;1.60;;
57744;SDS011;58941;50.168;4.410;2023-11-21T01:37:16;2.58;;;1.65;;
57744;SDS011;58941;50.168;4.410;2023-11-21T01:39:45;2.03;;;1.63;;
57744;SDS011;58941;50.168;4.410;2023-11-21T01:42:12;2.20;;;1.75;;
57744;SDS011;58941;50.168;4.410;2023-11-21T01:44:38;1.63;;;1.35;;
57744;SDS011;58941;50.168;4.410;2023-11-21T01:47:04;2.53;;;1.60;;
57744;SDS011;58941;50.168;4.410;2023-11-21T01:49:34;2.63;;;1.65;;
57744;SDS011;58941;50.168;4.410;2023-11-21T01:52:00;1.80;;;1.70;;
57744;SDS011;58941;50.168;4.410;2023-11-21T01:54:25;2.15;;;1.75;;
57744;SDS011;58941;50.168;4.410;2023-11-21T01:56:52;1.70;;;1.60;;
57744;SDS011;58941;50.168;4.410;2023-11-21T01:59:20;2.42;;;1.50;;
57744;SDS011;58941;50.168;4.410;2023-11-21T02:01:46;2.10;;;1.60;;
57744;SDS011;58941;50.168;4.410;2023-11-21T02:04:12;2.00;;;1.65;;
57744;SDS011;58941;50.168;4.410;2023-11-21T02:06:38;2.33;;;1.75;;
57744;SDS011;58941;50.168;4.410;2023-11-21T02:09:04;2.60;;;2.00;;
57744;SDS011;58941;50.168;4.410;2023-11-21T02:11:30;2.33;;;1.98;;
57744;SDS011;58941;50.168;4.410;2023-11-21T02:13:55;2.05;;;1.70;;
57744;SDS011;58941;50.168;4.410;2023-11-21T02:16:21;2.42;;;1.90;;
57744;SDS011;58941;50.168;4.410;2023-11-21T02:18:47;2.35;;;1.98;;
57744;SDS011;58941;50.168;4.410;2023-11-21T02:21:14;2.13;;;1.90;;
57744;SDS011;58941;50.168;4.410;2023-11-21T02:23:39;2.67;;;1.90;;
57744;SDS011;58941;50.168;4.410;2023-11-21T02:26:10;2.28;;;1.80;;
57744;SDS011;58941;50.168;4.410;2023-11-21T02:28:36;2.28;;;1.70;;
57744;SDS011;58941;50.168;4.410;2023-11-21T02:31:01;2.97;;;1.70;;
57744;SDS011;58941;50.168;4.410;2023-11-21T02:33:28;2.05;;;1.80;;
57744;SDS011;58941;50.168;4.410;2023-11-21T02:35:53;1.75;;;1.60;;
57744;SDS011;58941;50.168;4.410;2023-11-21T02:38:20;3.38;;;2.03;;
57744;SDS011;58941;50.168;4.410;2023-11-21T02:40:46;1.83;;;1.67;;
57744;SDS011;58941;50.168;4.410;2023-11-21T02:43:12;2.22;;;1.80;;
57744;SDS011;58941;50.168;4.410;2023-11-21T02:45:37;3.42;;;1.92;;
57744;SDS011;58941;50.168;4.410;2023-11-21T02:48:03;2.53;;;1.73;;
57744;SDS011;58941;50.168;4.410;2023-11-21T02:50:29;4.90;;;1.92;;
57744;SDS011;58941;50.168;4.410;2023-11-21T02:52:55;1.85;;;1.58;;
57744;SDS011;58941;50.168;4.410;2023-11-21T02:55:23;2.35;;;1.70;;
57744;SDS011;58941;50.168;4.410;2023-11-21T02:57:50;2.75;;;1.63;;
57744;SDS011;58941;50.168;4.410;2023-11-21T03:00:16;2.10;;;1.90;;
57744;SDS011;58941;50.168;4.410;2023-11-21T03:02:42;2.38;;;1.90;;
57744;SDS011;58941;50.168;4.410;2023-11-21T03:05:08;2.53;;;2.05;;
57744;SDS011;58941;50.168;4.410;2023-11-21T03:07:34;2.15;;;1.90;;
57744;SDS011;58941;50.168;4.410;2023-11-21T03:10:00;3.10;;;2.13;;
57744;SDS011;58941;50.168;4.410;2023-11-21T03:12:26;2.20;;;1.90;;
57744;SDS011;58941;50.168;4.410;2023-11-21T03:14:51;2.28;;;1.77;;
57744;SDS011;58941;50.168;4.410;2023-11-21T03:17:17;3.75;;;1.90;;
57744;SDS011;58941;50.168;4.410;2023-11-21T03:19:42;2.90;;;2.10;;
57744;SDS011;58941;50.168;4.410;2023-11-21T03:22:08;2.08;;;1.83;;
57744;SDS011;58941;50.168;4.410;2023-11-21T03:24:34;2.72;;;2.00;;
57744;SDS011;58941;50.168;4.410;2023-11-21T03:26:59;3.17;;;2.10;;
57744;SDS011;58941;50.168;4.410;2023-11-21T03:29:24;2.42;;;2.05;;
57744;SDS011;58941;50.168;4.410;2023-11-21T03:31:50;3.80;;;1.95;;
57744;SDS011;58941;50.168;4.410;2023-11-21T03:34:23;2.70;;;2.10;;
57744;SDS011;58941;50.168;4.410;2023-11-21T03:36:50;2.65;;;1.90;;
57744;SDS011;58941;50.168;4.410;2023-11-21T03:39:15;2.80;;;2.15;;
57744;SDS011;58941;50.168;4.410;2023-11-21T03:41:41;2.88;;;1.88;;
57744;SDS011;58941;50.168;4.410;2023-11-21T03:44:06;2.88;;;1.90;;
57744;SDS011;58941;50.168;4.410;2023-11-21T03:46:32;3.65;;;1.85;;
57744;SDS011;58941;50.168;4.410;2023-11-21T03:48:57;3.00;;;1.90;;
57744;SDS011;58941;50.168;4.410;2023-11-21T03:51:22;5.03;;;2.35;;
57744;SDS011;58941;50.168;4.410;2023-11-21T03:53:47;2.13;;;1.58;;
57744;SDS011;58941;50.168;4.410;2023-11-21T03:56:13;3.95;;;2.13;;
57744;SDS011;58941;50.168;4.410;2023-11-21T03:58:39;2.97;;;1.80;;
57744;SDS011;58941;50.168;4.410;2023-11-21T04:01:04;2.22;;;1.80;;
57744;SDS011;58941;50.168;4.410;2023-11-21T04:03:30;1.98;;;1.77;;
57744;SDS011;58941;50.168;4.410;2023-11-21T04:05:55;3.10;;;1.98;;
57744;SDS011;58941;50.168;4.410;2023-11-21T04:08:21;3.00;;;1.90;;
57744;SDS011;58941;50.168;4.410;2023-11-21T04:10:46;2.63;;;2.15;;
57744;SDS011;58941;50.168;4.410;2023-11-21T04:13:12;2.15;;;1.90;;
57744;SDS011;58941;50.168;4.410;2023-11-21T04:15:37;2.50;;;1.90;;
57744;SDS011;58941;50.168;4.410;2023-11-21T04:18:03;2.33;;;1.95;;
57744;SDS011;58941;50.168;4.410;2023-11-21T04:20:28;2.85;;;1.90;;
57744;SDS011;58941;50.168;4.410;2023-11-21T04:22:53;2.20;;;1.83;;
57744;SDS011;58941;50.168;4.410;2023-11-21T04:25:19;2.88;;;2.00;;
57744;SDS011;58941;50.168;4.410;2023-11-21T04:27:44;2.58;;;1.90;;
57744;SDS011;58941;50.168;4.410;2023-11-21T04:30:10;1.73;;;1.63;;
57744;SDS011;58941;50.168;4.410;2023-11-21T04:32:36;2.35;;;2.00;;
57744;SDS011;58941;50.168;4.410;2023-11-21T04:35:02;3.80;;;2.08;;
57744;SDS011;58941;50.168;4.410;2023-11-21T04:37:29;3.25;;;1.90;;
57744;SDS011;58941;50.168;4.410;2023-11-21T04:39:54;3.40;;;2.00;;
57744;SDS011;58941;50.168;4.410;2023-11-21T04:42:20;2.92;;;2.08;;
57744;SDS011;58941;50.168;4.410;2023-11-21T04:44:45;2.33;;;1.90;;
57744;SDS011;58941;50.168;4.410;2023-11-21T04:47:11;2.30;;;2.08;;
57744;SDS011;58941;50.168;4.410;2023-11-21T04:49:36;2.70;;;2.10;;
57744;SDS011;58941;50.168;4.410;2023-11-21T04:52:02;2.20;;;1.92;;
57744;SDS011;58941;50.168;4.410;2023-11-21T04:54:29;2.55;;;2.17;;
57744;SDS011;58941;50.168;4.410;2023-11-21T04:56:55;3.75;;;2.08;;
57744;SDS011;58941;50.168;4.410;2023-11-21T04:59:21;2.40;;;2.00;;
57744;SDS011;58941;50.168;4.410;2023-11-21T05:01:50;3.60;;;2.10;;
57744;SDS011;58941;50.168;4.410;2023-11-21T05:04:16;2.85;;;2.25;;
57744;SDS011;58941;50.168;4.410;2023-11-21T05:06:41;2.10;;;1.90;;
57744;SDS011;58941;50.168;4.410;2023-11-21T05:09:07;2.45;;;2.25;;
57744;SDS011;58941;50.168;4.410;2023-11-21T05:11:37;3.13;;;2.10;;
57744;SDS011;58941;50.168;4.410;2023-11-21T05:14:03;2.78;;;2.10;;
57744;SDS011;58941;50.168;4.410;2023-11-21T05:16:30;2.55;;;1.90;;
57744;SDS011;58941;50.168;4.410;2023-11-21T05:18:56;2.33;;;2.00;;
57744;SDS011;58941;50.168;4.410;2023-11-21T05:21:26;2.17;;;1.92;;
57744;SDS011;58941;50.168;4.410;2023-11-21T05:23:52;2.30;;;2.00;;
57744;SDS011;58941;50.168;4.410;2023-11-21T05:26:17;2.85;;;1.83;;
57744;SDS011;58941;50.168;4.410;2023-11-21T05:28:43;4.47;;;2.13;;
57744;SDS011;58941;50.168;4.410;2023-11-21T05:31:08;1.98;;;1.77;;
57744;SDS011;58941;50.168;4.410;2023-11-21T05:33:34;2.45;;;2.00;;
57744;SDS011;58941;50.168;4.410;2023-11-21T05:35:59;2.45;;;1.83;;
57744;SDS011;58941;50.168;4.410;2023-11-21T05:38:25;2.85;;;2.47;;
57744;SDS011;58941;50.168;4.410;2023-11-21T05:40:51;3.40;;;2.15;;
57744;SDS011;58941;50.168;4.410;2023-11-21T05:43:16;2.20;;;1.83;;
57744;SDS011;58941;50.168;4.410;2023-11-21T05:45:42;3.30;;;2.08;;
57744;SDS011;58941;50.168;4.410;2023-11-21T05:48:07;2.10;;;1.90;;
57744;SDS011;58941;50.168;4.410;2023-11-21T05:50:33;2.50;;;1.98;;
57744;SDS011;58941;50.168;4.410;2023-11-21T05:52:58;2.05;;;1.70;;
57744;SDS011;58941;50.168;4.410;2023-11-21T05:55:28;3.17;;;2.13;;
57744;SDS011;58941;50.168;4.410;2023-11-21T05:57:53;2.25;;;2.03;;
57744;SDS011;58941;50.168;4.410;2023-11-21T06:00:19;2.28;;;2.03;;
57744;SDS011;58941;50.168;4.410;2023-11-21T06:02:51;2.10;;;1.90;;
57744;SDS011;58941;50.168;4.410;2023-11-21T06:05:21;3.85;;;2.10;;
57744;SDS011;58941;50.168;4.410;2023-11-21T06:07:49;2.45;;;1.83;;
57744;SDS011;58941;50.168;4.410;2023-11-21T06:10:15;2.42;;;1.85;;
57744;SDS011;58941;50.168;4.410;2023-11-21T06:12:45;3.05;;;2.05;;
57744;SDS011;58941;50.168;4.410;2023-11-21T06:15:11;2.88;;;1.95;;
57744;SDS011;58941;50.168;4.410;2023-11-21T06:17:40;2.30;;;1.85;;
57744;SDS011;58941;50.168;4.410;2023-11-21T06:20:06;3.50;;;2.20;;
57744;SDS011;58941;50.168;4.410;2023-11-21T06:22:35;2.50;;;1.90;;
57744;SDS011;58941;50.168;4.410;2023-11-21T06:25:01;2.10;;;1.90;;
57744;SDS011;58941;50.168;4.410;2023-11-21T06:27:27;2.40;;;2.08;;
57744;SDS011;58941;50.168;4.410;2023-11-21T06:29:53;2.38;;;1.95;;
57744;SDS011;58941;50.168;4.410;2023-11-21T06:32:18;2.95;;;2.00;;
57744;SDS011;58941;50.168;4.410;2023-11-21T06:34:45;2.67;;;2.05;;
57744;SDS011;58941;50.168;4.410;2023-11-21T06:37:11;2.55;;;2.00;;
57744;SDS011;58941;50.168;4.410;2023-11-21T06:39:37;2.22;;;2.03;;
57744;SDS011;58941;50.168;4.410;2023-11-21T06:42:03;3.22;;;2.20;;
57744;SDS011;58941;50.168;4.410;2023-11-21T06:44:29;3.80;;;2.03;;
57744;SDS011;58941;50.168;4.410;2023-11-21T06:46:55;2.03;;;1.80;;
57744;SDS011;58941;50.168;4.410;2023-11-21T06:49:20;2.10;;;1.90;;
57744;SDS011;58941;50.168;4.410;2023-11-21T06:51:46;1.70;;;1.60;;
57744;SDS011;58941;50.168;4.410;2023-11-21T06:54:12;2.35;;;1.70;;
57744;SDS011;58941;50.168;4.410;2023-11-21T06:56:37;1.77;;;1.67;;
57744;SDS011;58941;50.168;4.410;2023-11-21T06:59:04;2.38;;;1.70;;
57744;SDS011;58941;50.168;4.410;2023-11-21T07:01:30;2.58;;;2.10;;
57744;SDS011;58941;50.168;4.410;2023-11-21T07:04:00;1.88;;;1.67;;
57744;SDS011;58941;50.168;4.410;2023-11-21T07:06:26;2.03;;;1.75;;
57744;SDS011;58941;50.168;4.410;2023-11-21T07:08:52;2.47;;;1.80;;
57744;SDS011;58941;50.168;4.410;2023-11-21T07:11:18;2.42;;;1.55;;
57744;SDS011;58941;50.168;4.410;2023-11-21T07:13:43;1.70;;;1.60;;
57744;SDS011;58941;50.168;4.410;2023-11-21T07:16:09;1.67;;;1.50;;
57744;SDS011;58941;50.168;4.410;2023-11-21T07:18:35;1.75;;;1.60;;
57744;SDS011;58941;50.168;4.410;2023-11-21T07:21:01;1.92;;;1.63;;
57744;SDS011;58941;50.168;4.410;2023-11-21T07:23:27;2.22;;;1.80;;
57744;SDS011;58941;50.168;4.410;2023-11-21T07:25:53;2.08;;;1.88;;
57744;SDS011;58941;50.168;4.410;2023-11-21T07:28:18;1.60;;;1.40;;
57744;SDS011;58941;50.168;4.410;2023-11-21T07:30:45;1.90;;;1.70;;
57744;SDS011;58941;50.168;4.410;2023-11-21T07:33:13;2.00;;;1.70;;
57744;SDS011;58941;50.168;4.410;2023-11-21T07:35:40;1.90;;;1.42;;
57744;SDS011;58941;50.168;4.410;2023-11-21T07:38:06;1.80;;;1.70;;
57744;SDS011;58941;50.168;4.410;2023-11-21T07:40:32;5.43;;;2.30;;
57744;SDS011;58941;50.168;4.410;2023-11-21T07:42:58;5.68;;;2.38;;
57744;SDS011;58941;50.168;4.410;2023-11-21T07:45:24;3.47;;;2.17;;
57744;SDS011;58941;50.168;4.410;2023-11-21T07:47:53;3.72;;;1.90;;
57744;SDS011;58941;50.168;4.410;2023-11-21T07:50:20;4.57;;;2.13;;
57744;SDS011;58941;50.168;4.410;2023-11-21T07:52:46;3.33;;;2.20;;
57744;SDS011;58941;50.168;4.410;2023-11-21T07:55:12;3.90;;;1.98;;
57744;SDS011;58941;50.168;4.410;2023-11-21T07:57:39;4.15;;;2.00;;
57744;SDS011;58941;50.168;4.410;2023-11-21T08:00:05;2.85;;;2.00;;
57744;SDS011;58941;50.168;4.410;2023-11-21T08:02:35;3.65;;;2.13;;
57744;SDS011;58941;50.168;4.410;2023-11-21T08:05:01;2.10;;;1.75;;
57744;SDS011;58941;50.168;4.410;2023-11-21T08:07:27;2.08;;;1.83;;
57744;SDS011;58941;50.168;4.410;2023-11-21T08:09:52;3.00;;;1.88;;
57744;SDS011;58941;50.168;4.410;2023-11-21T08:12:19;3.35;;;1.98;;
57744;SDS011;58941;50.168;4.410;2023-11-21T08:14:46;4.05;;;2.28;;
57744;SDS011;58941;50.168;4.410;2023-11-21T08:17:12;3.05;;;2.00;;
57744;SDS011;58941;50.168;4.410;2023-11-21T08:19:37;4.50;;;2.22;;
57744;SDS011;58941;50.168;4.410;2023-11-21T08:22:03;3.35;;;2.35;;
57744;SDS011;58941;50.168;4.410;2023-11-21T08:24:29;2.75;;;2.00;;
57744;SDS011;58941;50.168;4.410;2023-11-21T08:26:56;2.67;;;2.10;;
57744;SDS011;58941;50.168;4.410;2023-11-21T08:29:23;4.38;;;2.60;;
57744;SDS011;58941;50.168;4.410;2023-11-21T08:31:49;2.53;;;1.83;;
57744;SDS011;58941;50.168;4.410;2023-11-21T08:34:15;2.67;;;1.92;;
57744;SDS011;58941;50.168;4.410;2023-11-21T08:36:43;2.70;;;2.13;;
57744;SDS011;58941;50.168;4.410;2023-11-21T08:39:09;2.45;;;1.63;;
57744;SDS011;58941;50.168;4.410;2023-11-21T08:41:38;3.53;;;1.98;;
57744;SDS011;58941;50.168;4.410;2023-11-21T08:44:04;2.65;;;2.10;;
57744;SDS011;58941;50.168;4.410;2023-11-21T08:46:33;3.58;;;2.10;;
57744;SDS011;58941;50.168;4.410;2023-11-21T08:49:02;2.47;;;1.80;;
57744;SDS011;58941;50.168;4.410;2023-11-21T08:51:28;2.92;;;1.85;;
57744;SDS011;58941;50.168;4.410;2023-11-21T08:53:53;3.15;;;2.05;;
57744;SDS011;58941;50.168;4.410;2023-11-21T08:56:20;2.35;;;1.90;;
57744;SDS011;58941;50.168;4.410;2023-11-21T08:58:46;1.95;;;1.77;;
57744;SDS011;58941;50.168;4.410;2023-11-21T09:01:16;2.13;;;1.83;;
57744;SDS011;58941;50.168;4.410;2023-11-21T09:03:42;2.15;;;1.75;;
57744;SDS011;58941;50.168;4.410;2023-11-21T09:06:09;3.05;;;1.95;;
57744;SDS011;58941;50.168;4.410;2023-11-21T09:08:35;2.58;;;1.98;;
57744;SDS011;58941;50.168;4.410;2023-11-21T09:11:01;3.72;;;2.00;;
57744;SDS011;58941;50.168;4.410;2023-11-21T09:13:26;2.90;;;1.98;;
57744;SDS011;58941;50.168;4.410;2023-11-21T09:15:53;3.50;;;1.92;;
57744;SDS011;58941;50.168;4.410;2023-11-21T09:18:20;2.65;;;1.63;;
57744;SDS011;58941;50.168;4.410;2023-11-21T09:20:47;3.22;;;1.83;;
57744;SDS011;58941;50.168;4.410;2023-11-21T09:23:13;2.75;;;1.83;;
57744;SDS011;58941;50.168;4.410;2023-11-21T09:25:38;2.25;;;2.05;;
57744;SDS011;58941;50.168;4.410;2023-11-21T09:28:05;2.63;;;1.83;;
57744;SDS011;58941;50.168;4.410;2023-11-21T09:30:34;3.65;;;2.28;;
57744;SDS011;58941;50.168;4.410;2023-11-21T09:33:01;4.13;;;1.98;;
57744;SDS011;58941;50.168;4.410;2023-11-21T09:35:28;2.28;;;1.95;;
57744;SDS011;58941;50.168;4.410;2023-11-21T09:37:57;3.25;;;1.70;;
57744;SDS011;58941;50.168;4.410;2023-11-21T09:40:41;4.15;;;2.10;;
57744;SDS011;58941;50.168;4.410;2023-11-21T09:43:32;3.05;;;2.00;;
57744;SDS011;58941;50.168;4.410;2023-11-21T09:46:01;3.30;;;2.03;;
57744;SDS011;58941;50.168;4.410;2023-11-21T09:48:28;2.70;;;2.15;;
57744;SDS011;58941;50.168;4.410;2023-11-21T09:50:56;2.03;;;1.83;;
57744;SDS011;58941;50.168;4.410;2023-11-21T09:53:26;2.45;;;2.00;;
57744;SDS011;58941;50.168;4.410;2023-11-21T09:55:55;2.35;;;2.13;;
57744;SDS011;58941;50.168;4.410;2023-11-21T09:58:22;3.88;;;2.10;;
57744;SDS011;58941;50.168;4.410;2023-11-21T10:00:52;2.55;;;1.80;;
57744;SDS011;58941;50.168;4.410;2023-11-21T10:03:19;4.35;;;2.05;;
57744;SDS011;58941;50.168;4.410;2023-11-21T10:05:45;3.63;;;1.90;;
57744;SDS011;58941;50.168;4.410;2023-11-21T10:08:12;2.40;;;1.95;;
57744;SDS011;58941;50.168;4.410;2023-11-21T10:10:42;5.78;;;1.90;;
57744;SDS011;58941;50.168;4.410;2023-11-21T10:13:18;2.92;;;2.47;;
57744;SDS011;58941;50.168;4.410;2023-11-21T10:15:48;4.78;;;2.55;;
57744;SDS011;58941;50.168;4.410;2023-11-21T10:18:15;5.90;;;2.13;;
57744;SDS011;58941;50.168;4.410;2023-11-21T10:20:41;5.03;;;1.98;;
57744;SDS011;58941;50.168;4.410;2023-11-21T10:23:08;2.75;;;2.05;;
57744;SDS011;58941;50.168;4.410;2023-11-21T10:25:36;2.83;;;2.17;;
57744;SDS011;58941;50.168;4.410;2023-11-21T10:28:03;6.80;;;3.00;;
57744;SDS011;58941;50.168;4.410;2023-11-21T10:30:36;6.45;;;3.22;;
57744;SDS011;58941;50.168;4.410;2023-11-21T10:33:03;4.50;;;3.20;;
57744;SDS011;58941;50.168;4.410;2023-11-21T10:38:07;5.18;;;3.25;;
57744;SDS011;58941;50.168;4.410;2023-11-21T10:40:38;5.53;;;3.40;;
57744;SDS011;58941;50.168;4.410;2023-11-21T10:43:08;5.57;;;3.38;;
57744;SDS011;58941;50.168;4.410;2023-11-21T10:45:40;6.55;;;2.88;;
57744;SDS011;58941;50.168;4.410;2023-11-21T10:48:08;6.95;;;3.40;;
57744;SDS011;58941;50.168;4.410;2023-11-21T10:50:35;6.00;;;3.08;;
57744;SDS011;58941;50.168;4.410;2023-11-21T10:53:01;7.22;;;3.35;;
57744;SDS011;58941;50.168;4.410;2023-11-21T10:55:29;5.15;;;3.10;;
57744;SDS011;58941;50.168;4.410;2023-11-21T10:57:58;6.20;;;3.30;;
57744;SDS011;58941;50.168;4.410;2023-11-21T11:00:32;7.25;;;3.38;;
57744;SDS011;58941;50.168;4.410;2023-11-21T11:02:59;4.05;;;2.90;;
57744;SDS011;58941;50.168;4.410;2023-11-21T11:05:26;6.32;;;3.55;;
57744;SDS011;58941;50.168;4.410;2023-11-21T11:07:58;7.72;;;3.38;;
57744;SDS011;58941;50.168;4.410;2023-11-21T11:10:29;8.80;;;3.33;;
57744;SDS011;58941;50.168;4.410;2023-11-21T11:12:58;5.93;;;3.25;;
57744;SDS011;58941;50.168;4.410;2023-11-21T11:15:32;4.47;;;3.15;;
57744;SDS011;58941;50.168;4.410;2023-11-21T11:18:04;5.05;;;3.03;;
57744;SDS011;58941;50.168;4.410;2023-11-21T11:20:36;6.65;;;3.38;;
57744;SDS011;58941;50.168;4.410;2023-11-21T11:26:05;5.60;;;3.20;;
57744;SDS011;58941;50.168;4.410;2023-11-21T11:28:37;4.18;;;3.00;;
57744;SDS011;58941;50.168;4.410;2023-11-21T11:36:17;6.75;;;2.78;;
57744;SDS011;58941;50.168;4.410;2023-11-21T11:38:48;7.38;;;2.97;;
57744;SDS011;58941;50.168;4.410;2023-11-21T11:41:30;7.78;;;3.47;;
57744;SDS011;58941;50.168;4.410;2023-11-21T11:43:59;8.25;;;3.35;;
57744;SDS011;58941;50.168;4.410;2023-11-21T11:47:01;5.53;;;2.97;;
57744;SDS011;58941;50.168;4.410;2023-11-21T11:49:30;4.28;;;3.08;;
57744;SDS011;58941;50.168;4.410;2023-11-21T11:54:53;7.28;;;3.22;;
57744;SDS011;58941;50.168;4.410;2023-11-21T11:57:41;7.38;;;3.78;;
57744;SDS011;58941;50.168;4.410;2023-11-21T12:00:12;11.27;;;3.47;;
57744;SDS011;58941;50.168;4.410;2023-11-21T12:02:58;6.95;;;3.55;;
57744;SDS011;58941;50.168;4.410;2023-11-21T12:05:33;14.23;;;3.80;;
57744;SDS011;58941;50.168;4.410;2023-11-21T12:08:08;8.70;;;3.47;;
57744;SDS011;58941;50.168;4.410;2023-11-21T12:10:36;10.23;;;3.78;;
57744;SDS011;58941;50.168;4.410;2023-11-21T12:13:05;8.15;;;3.58;;
57744;SDS011;58941;50.168;4.410;2023-11-21T12:15:33;8.80;;;3.93;;
57744;SDS011;58941;50.168;4.410;2023-11-21T12:18:00;10.00;;;3.45;;
57744;SDS011;58941;50.168;4.410;2023-11-21T12:20:30;12.45;;;3.75;;
57744;SDS011;58941;50.168;4.410;2023-11-21T12:22:58;7.32;;;3.38;;
57744;SDS011;58941;50.168;4.410;2023-11-21T12:25:26;6.82;;;3.13;;
57744;SDS011;58941;50.168;4.410;2023-11-21T12:27:57;11.02;;;3.55;;
57744;SDS011;58941;50.168;4.410;2023-11-21T12:30:24;8.27;;;3.42;;
57744;SDS011;58941;50.168;4.410;2023-11-21T12:32:51;5.43;;;2.97;;
57744;SDS011;58941;50.168;4.410;2023-11-21T12:35:17;8.38;;;2.85;;
57744;SDS011;58941;50.168;4.410;2023-11-21T12:37:44;6.10;;;2.90;;
57744;SDS011;58941;50.168;4.410;2023-11-21T12:40:12;7.88;;;3.45;;
57744;SDS011;58941;50.168;4.410;2023-11-21T12:42:45;6.00;;;3.50;;
57744;SDS011;58941;50.168;4.410;2023-11-21T12:47:41;8.65;;;3.38;;
57744;SDS011;58941;50.168;4.410;2023-11-21T12:50:06;7.82;;;3.30;;
57744;SDS011;58941;50.168;4.410;2023-11-21T12:52:32;7.68;;;3.25;;
57744;SDS011;58941;50.168;4.410;2023-11-21T12:54:58;7.15;;;3.33;;
57744;SDS011;58941;50.168;4.410;2023-11-21T12:57:27;5.63;;;3.28;;
57744;SDS011;58941;50.168;4.410;2023-11-21T12:59:57;7.78;;;3.40;;
57744;SDS011;58941;50.168;4.410;2023-11-21T13:02:25;5.47;;;2.83;;
57744;SDS011;58941;50.168;4.410;2023-11-21T13:04:54;5.80;;;3.55;;
57744;SDS011;58941;50.168;4.410;2023-11-21T13:07:19;6.78;;;3.33;;
57744;SDS011;58941;50.168;4.410;2023-11-21T13:09:47;5.07;;;3.28;;
57744;SDS011;58941;50.168;4.410;2023-11-21T13:12:17;6.30;;;3.33;;
57744;SDS011;58941;50.168;4.410;2023-11-21T13:14:45;4.97;;;3.00;;
57744;SDS011;58941;50.168;4.410;2023-11-21T13:17:11;8.23;;;3.35;;
57744;SDS011;58941;50.168;4.410;2023-11-21T13:19:37;7.57;;;3.97;;
57744;SDS011;58941;50.168;4.410;2023-11-21T13:22:03;8.88;;;3.00;;
57744;SDS011;58941;50.168;4.410;2023-11-21T13:24:29;5.07;;;3.05;;
57744;SDS011;58941;50.168;4.410;2023-11-21T13:26:55;6.97;;;3.45;;
57744;SDS011;58941;50.168;4.410;2023-11-21T13:29:20;3.83;;;2.85;;
57744;SDS011;58941;50.168;4.410;2023-11-21T13:31:46;8.98;;;2.97;;
57744;SDS011;58941;50.168;4.410;2023-11-21T13:34:16;10.98;;;4.05;;
57744;SDS011;58941;50.168;4.410;2023-11-21T13:36:44;5.15;;;3.10;;
57744;SDS011;58941;50.168;4.410;2023-11-21T13:39:10;7.47;;;3.38;;
57744;SDS011;58941;50.168;4.410;2023-11-21T13:41:43;6.32;;;3.50;;
57744;SDS011;58941;50.168;4.410;2023-11-21T13:44:08;5.43;;;3.08;;
57744;SDS011;58941;50.168;4.410;2023-11-21T13:46:42;7.35;;;3.33;;
57744;SDS011;58941;50.168;4.410;2023-11-21T13:49:11;7.90;;;3.60;;
57744;SDS011;58941;50.168;4.410;2023-11-21T13:51:37;7.88;;;3.58;;
57744;SDS011;58941;50.168;4.410;2023-11-21T13:54:06;5.53;;;3.40;;
57744;SDS011;58941;50.168;4.410;2023-11-21T13:56:35;6.38;;;3.45;;
57744;SDS011;58941;50.168;4.410;2023-11-21T13:59:01;8.60;;;3.88;;
57744;SDS011;58941;50.168;4.410;2023-11-21T14:01:48;5.88;;;3.55;;
57744;SDS011;58941;50.168;4.410;2023-11-21T14:04:19;5.10;;;3.28;;
57744;SDS011;58941;50.168;4.410;2023-11-21T14:06:56;7.25;;;3.35;;
57744;SDS011;58941;50.168;4.410;2023-11-21T14:09:24;5.97;;;3.42;;
57744;SDS011;58941;50.168;4.410;2023-11-21T14:11:54;5.45;;;3.08;;
57744;SDS011;58941;50.168;4.410;2023-11-21T14:14:23;7.10;;;3.38;;
57744;SDS011;58941;50.168;4.410;2023-11-21T14:16:53;6.45;;;3.30;;
57744;SDS011;58941;50.168;4.410;2023-11-21T14:19:40;5.63;;;2.95;;
57744;SDS011;58941;50.168;4.410;2023-11-21T14:22:11;4.85;;;3.22;;
57744;SDS011;58941;50.168;4.410;2023-11-21T14:24:38;5.80;;;3.65;;
57744;SDS011;58941;50.168;4.410;2023-11-21T14:27:15;5.65;;;2.92;;
57744;SDS011;58941;50.168;4.410;2023-11-21T14:29:41;5.68;;;3.17;;
57744;SDS011;58941;50.168;4.410;2023-11-21T14:32:10;6.72;;;3.78;;
57744;SDS011;58941;50.168;4.410;2023-11-21T14:34:37;4.35;;;3.30;;
57744;SDS011;58941;50.168;4.410;2023-11-21T14:37:03;5.47;;;3.58;;
57744;SDS011;58941;50.168;4.410;2023-11-21T14:39:29;5.85;;;3.33;;
57744;SDS011;58941;50.168;4.410;2023-11-21T14:41:55;4.90;;;3.10;;
57744;SDS011;58941;50.168;4.410;2023-11-21T14:44:25;5.00;;;3.70;;
57744;SDS011;58941;50.168;4.410;2023-11-21T14:46:57;7.68;;;3.88;;
57744;SDS011;58941;50.168;4.410;2023-11-21T14:49:24;7.22;;;3.70;;
57744;SDS011;58941;50.168;4.410;2023-11-21T14:51:53;7.10;;;3.30;;
57744;SDS011;58941;50.168;4.410;2023-11-21T14:54:29;4.18;;;3.20;;
57744;SDS011;58941;50.168;4.410;2023-11-21T14:57:04;4.13;;;3.22;;
57744;SDS011;58941;50.168;4.410;2023-11-21T14:59:30;5.32;;;3.05;;
57744;SDS011;58941;50.168;4.410;2023-11-21T15:01:57;3.72;;;2.95;;
57744;SDS011;58941;50.168;4.410;2023-11-21T15:04:23;6.28;;;3.17;;
57744;SDS011;58941;50.168;4.410;2023-11-21T15:07:07;4.50;;;2.85;;